Marion, Virginia
Current Conditions -  °F | °C
As of 10:15 AM on Wednesday 26 Nov 2014 (Local Time) from KMKJ Reporting Station
Light Snow Light Snow  
Wind Chill: 35°   Ceiling: 1400
Heat Index: 35°   Visibility: 0.5mi
Dew Point: 33°   Wind: 0mph
Humidity: 95%   Direction: NA
Pressure: 30.02"   Gusts: NA
Location:  36.83°N, 81.52°W
Report Text: KMKJ 261515Z AUTO 00000KT 1/2SM -SN OVC014 01/01 A3002 RMK AO2 P0005 T00140007
Loading
Personal Weather Stations






























Interactive Weather Map New forecast layout! Learn more

10-Day Weather Forecast

Advertisements
Track Severe Weather on mobile